»·PEaware :: N323CW KGEG-KBOI

N323CW :: KGEG-KBOI

FLIGHT INFORMATION

Flight Status: Arrived
Operator: Privately registered:
United States
More flights under this callsign
Pilot: Joe C. (19058)
Aircraft: BEECH AIRCRAFT BEECH AIRLINER
(B190)
More flights by this aircraft type
Origin: KGEG Spokane Intl
United States
Destination: KBOI Boise Air Terminal/Gowen
United States
More flights between these airports :: More routes between these airports
Route: +GEG3 GEG V253 DNJ COLLR BEWTE3
File this flight plan on PilotEdge
Remarks: PBN / D2 DOF / 180603 REG / N190SB EET / KZLC0046 PER / B RMK / TCAS SIMBRIEF
Altitude:
(Current/Filed)
19,000ft
Speed:
(Current/Filed)
253kts
Departed: 03-Jun-18 01:13 PM
Arrived: 03-Jun-18 02:21 PM
Distance/Time
Traveled:
249nm/1:08
Distance/Time
To Go:
Arrived

Flight Plot

Page will automatically refresh every two minutes.

Flight plan parsing failed; only flown route is shown


Map Options




Map Legend


Flown Route
Filed Route
Departure Airport
Arrival Airport
Navaid (VOR, NDB)
Fix

Horizontal Profiles

Position Reports

Time Latitude Longitude Heading Altitude Ground
Speed
03-Jun-18 12:53 47.623507 -117.524424 269 2352ft 0kts
03-Jun-18 12:54 47.623507 -117.524424 269 2352ft 0kts
03-Jun-18 12:55 47.623507 -117.524424 269 2352ft 0kts
03-Jun-18 12:56 47.623507 -117.524424 269 2352ft 0kts
03-Jun-18 12:57 47.623507 -117.524424 269 2352ft 0kts
03-Jun-18 12:58 47.623507 -117.524424 269 2352ft 0kts
03-Jun-18 12:59 47.623507 -117.524424 269 2352ft 0kts
03-Jun-18 13:00 47.623507 -117.524424 269 2352ft 0kts
03-Jun-18 13:01 47.623507 -117.524424 269 2352ft 0kts
03-Jun-18 13:02 47.623507 -117.524424 269 2352ft 0kts
03-Jun-18 13:03 47.623507 -117.524424 269 2352ft 0kts
03-Jun-18 13:04 47.623507 -117.524424 269 2352ft 0kts
03-Jun-18 13:05 47.623507 -117.524424 269 2352ft 0kts
03-Jun-18 13:06 47.623507 -117.524424 269 2352ft 0kts
03-Jun-18 13:07 47.623507 -117.524424 269 2352ft 0kts
03-Jun-18 13:08 47.623507 -117.524424 269 2352ft 0kts
03-Jun-18 13:09 47.623507 -117.524429 269 2352ft 0kts
03-Jun-18 13:10 47.626225 -117.522351 45 2345ft 23kts
03-Jun-18 13:11 47.630397 -117.517309 314 2324ft 0kts
03-Jun-18 13:12 47.630432 -117.517360 314 2324ft 2kts
03-Jun-18 13:13 47.620030 -117.534795 220 2536ft 147kts
03-Jun-18 13:14 47.587991 -117.577334 220 4874ft 159kts
03-Jun-18 13:15 47.555473 -117.622565 220 7342ft 161kts
03-Jun-18 13:16 47.522833 -117.668186 220 9681ft 163kts
03-Jun-18 13:17 47.483723 -117.665893 135 11372ft 183kts
03-Jun-18 13:18 47.445204 -117.608256 141 12065ft 230kts
03-Jun-18 13:19 47.390818 -117.547179 165 12113ft 253kts
03-Jun-18 13:20 47.322899 -117.516256 165 12044ft 252kts
03-Jun-18 13:21 47.256609 -117.486088 165 12049ft 248kts
03-Jun-18 13:22 47.197188 -117.458872 167 13914ft 190kts
03-Jun-18 13:23 47.151496 -117.438213 168 15806ft 171kts
03-Jun-18 13:24 47.103983 -117.416836 168 17227ft 179kts
03-Jun-18 13:25 47.057849 -117.396069 169 18530ft 182kts
03-Jun-18 13:26 47.008757 -117.374211 168 19060ft 214kts
03-Jun-18 13:27 46.947650 -117.346782 168 19048ft 244kts
03-Jun-18 13:28 46.881660 -117.317121 167 19049ft 255kts
03-Jun-18 13:29 46.814410 -117.286963 167 19045ft 251kts
03-Jun-18 13:30 46.747921 -117.257305 167 19046ft 250kts
03-Jun-18 13:31 46.681574 -117.227809 167 19045ft 249kts
03-Jun-18 13:32 46.625112 -117.164991 146 19043ft 258kts
03-Jun-18 13:33 46.570100 -117.098267 145 19043ft 258kts
03-Jun-18 13:34 46.514806 -117.031430 145 19019ft 259kts
03-Jun-18 13:35 46.459247 -116.964455 145 18999ft 261kts
03-Jun-18 13:36 46.403418 -116.897338 145 18991ft 262kts
03-Jun-18 13:37 46.340233 -116.853345 168 18983ft 253kts
03-Jun-18 13:38 46.272794 -116.824977 168 18990ft 253kts
03-Jun-18 13:39 46.205025 -116.796500 168 18990ft 254kts
03-Jun-18 13:40 46.137535 -116.768194 168 18989ft 254kts
03-Jun-18 13:41 46.069875 -116.739902 167 18990ft 254kts
03-Jun-18 13:42 46.002132 -116.711646 168 19005ft 253kts
03-Jun-18 13:43 45.934727 -116.683607 168 19026ft 253kts
03-Jun-18 13:44 45.867654 -116.655789 168 19044ft 253kts
03-Jun-18 13:45 45.800044 -116.627782 168 19030ft 252kts
03-Jun-18 13:46 45.733049 -116.600162 168 19029ft 250kts
03-Jun-18 13:47 45.666232 -116.572653 168 19029ft 250kts
03-Jun-18 13:48 45.599606 -116.545289 168 19029ft 250kts
03-Jun-18 13:49 45.532909 -116.517961 168 19029ft 250kts
03-Jun-18 13:50 45.466395 -116.490773 168 19029ft 249kts
03-Jun-18 13:51 45.399669 -116.463564 168 19049ft 249kts
03-Jun-18 13:52 45.333503 -116.436650 168 19094ft 248kts
03-Jun-18 13:53 45.267263 -116.409775 168 19136ft 248kts
03-Jun-18 13:54 45.200997 -116.382958 168 19137ft 249kts
03-Jun-18 13:55 45.134469 -116.356088 168 19137ft 249kts
03-Jun-18 13:56 45.068267 -116.329477 168 19133ft 249kts
03-Jun-18 13:57 45.001394 -116.302620 168 19133ft 250kts
03-Jun-18 13:58 44.934428 -116.275748 167 19134ft 252kts
03-Jun-18 13:59 44.867242 -116.248820 167 19138ft 253kts
03-Jun-18 14:00 44.799291 -116.221701 167 19138ft 254kts
03-Jun-18 14:01 44.731154 -116.219247 192 19148ft 249kts
03-Jun-18 14:02 44.663204 -116.238129 193 19137ft 249kts
03-Jun-18 14:03 44.595314 -116.256536 190 19137ft 250kts
03-Jun-18 14:04 44.527062 -116.273681 192 19136ft 249kts
03-Jun-18 14:05 44.459229 -116.292345 193 19136ft 249kts
03-Jun-18 14:06 44.390124 -116.311608 192 18310ft 264kts
03-Jun-18 14:07 44.318350 -116.334635 194 16632ft 265kts
03-Jun-18 14:08 44.246745 -116.358055 193 15029ft 265kts
03-Jun-18 14:09 44.174826 -116.380858 193 13423ft 265kts
03-Jun-18 14:10 44.103161 -116.402813 192 11819ft 265kts
03-Jun-18 14:11 44.033005 -116.424280 192 10516ft 255kts
03-Jun-18 14:12 43.966533 -116.420736 169 9457ft 245kts
03-Jun-18 14:13 43.900374 -116.403136 169 8073ft 227kts
03-Jun-18 14:14 43.838859 -116.386936 169 6685ft 212kts
03-Jun-18 14:15 43.787444 -116.373367 169 6687ft 180kts
03-Jun-18 14:16 43.736367 -116.354809 164 6688ft 198kts
03-Jun-18 14:17 43.681516 -116.334286 165 6342ft 217kts
03-Jun-18 14:18 43.630793 -116.315485 165 5888ft 159kts
03-Jun-18 14:19 43.596115 -116.301786 137 4865ft 124kts
03-Jun-18 14:20 43.578925 -116.261394 119 3178ft 98kts
03-Jun-18 14:21 43.567664 -116.229290 110 2840ft 30kts
03-Jun-18 14:22 43.568692 -116.228260 35 2840ft 13kts

Navigation Log

Ident Type
Flight plan parsing failed, navigation log unavailable